Overseas Milos — V7WR8 — position and weather

sailwx.info

Track history (hours):
 
Tides and Currents Weather Stations Pressure Air Temp Water Temp Dewpoint Dewpoint Depression Visibility Wind Speed Wind Dir Waves Ship Positions

Overseas Milos

Last reported at 2017-Mar-30 00:32 UTC. Time now 2017-Mar-30 00:54 UTC.
Position N 33°46' W 118°14'.

Length 183 m; draft 8.1 m.

Type: Tanker. MMSI: 538004376.

Date/timePositionNaut miles runAvg speedWind from/ knotsBaromVisibWave heightAir tempDewpointWater temp
2017-Mar-30 00:32N 33°46' W 118°14'0 0.0
2017-Mar-29 23:32N 33°46' W 118°14'0 0.0
2017-Mar-29 22:32N 33°46' W 118°14'0 0.0
2017-Mar-29 21:26N 33°46' W 118°14'0 0.0
2017-Mar-29 20:32N 33°46' W 118°14'0 0.0
2017-Mar-29 19:32N 33°46' W 118°14'0 0.0
2017-Mar-29 18:32N 33°46' W 118°14'0 0.0
2017-Mar-29 17:32N 33°46' W 118°14'0 0.0
2017-Mar-29 16:32N 33°46' W 118°14'0 0.0
2017-Mar-29 15:26N 33°46' W 118°14'0 0.0
2017-Mar-29 14:26N 33°46' W 118°14'0 0.0
2017-Mar-29 13:32N 33°46' W 118°14'0 0.0
2017-Mar-29 12:30N 33°46' W 118°14'1 1.4
2017-Mar-29 11:33N 33°45' W 118°16'7 6.7
2017-Mar-29 10:33N 33°39' W 118°13'5 5.2
2017-Mar-29 09:33N 33°35' W 118°09'10 9.7
2017-Mar-29 08:33N 33°25' W 118°06'8 7.7
2017-Mar-29 07:33N 33°18' W 118°02'1312.8
2017-Mar-29 06:33N 33°08' W 117°54'1313.4
2017-Mar-29 05:33N 32°56' W 117°46'1312.9
2017-Mar-29 04:33N 32°44' W 117°40'1212.4
2017-Mar-29 03:33N 32°33' W 117°33'1211.7
2017-Mar-29 02:33N 32°22' W 117°28'7 6.9
2017-Mar-29 01:33N 32°15' W 117°27'1 1.2
2017-Mar-29 00:33N 32°16' W 117°29'1 1.0
2017-Mar-28 23:33N 32°16' W 117°30'9 9.1
2017-Mar-28 22:33N 32°09' W 117°22'3 2.9
2017-Mar-28 21:33N 32°07' W 117°20'1 1.1
2017-Mar-28 20:32N 32°08' W 117°21'1 1.1
2017-Mar-28 19:33N 32°08' W 117°22'1 0.9
2017-Mar-28 18:33N 32°09' W 117°23'1 0.9
2017-Mar-28 17:32N 32°10' W 117°24'4 0.8
2017-Mar-28 12:28N 32°13' W 117°27'1 1.2
2017-Mar-28 11:17N 32°15' W 117°27'1 1.5
2017-Mar-28 10:23N 32°16' W 117°27'1 1.6
2017-Mar-28 09:28N 32°17' W 117°28'1 1.6
2017-Mar-28 08:33N 32°19' W 117°28'1 1.5
2017-Mar-28 07:33N 32°20' W 117°29'2 1.7
2017-Mar-28 06:33N 32°22' W 117°30'4 3.6
2017-Mar-28 05:33N 32°25' W 117°31'1313.4
2017-Mar-28 04:33N 32°36' W 117°40'1413.8
2017-Mar-28 03:33N 32°49' W 117°47'1212.4
2017-Mar-28 02:34N 32°60' W 117°54'1211.8
2017-Mar-28 01:34N 33°10' W 117°59'1211.5
2017-Mar-28 00:33N 33°20' W 118°07'1111.5
2017-Mar-27 23:34N 33°31' W 118°11'9 9.3
2017-Mar-27 22:34N 33°36' W 118°20'1211.4
2017-Mar-27 21:33N 33°42' W 118°32'1311.8
2017-Mar-27 20:27N 33°48' W 118°46'1011.4
2017-Mar-27 19:32N 33°53' W 118°57'1412.1
2017-Mar-27 18:23N 34°00' W 119°11'1113.6
2017-Mar-27 17:33N 34°04' W 119°24'1413.9
2017-Mar-27 16:32N 34°08' W 119°40'1613.9
2017-Mar-27 15:23N 34°12' W 119°59'1314.0
2017-Mar-27 14:27N 34°16' W 120°14'1313.8
2017-Mar-27 13:28N 34°19' W 120°30'1213.5
2017-Mar-27 12:33N 34°22' W 120°45'1413.7
2017-Mar-27 11:33N 34°26' W 121°00'1413.7
2017-Mar-27 10:34N 34°30' W 121°16'1313.3
2017-Mar-27 09:33N 34°34' W 121°32'1313.5
2017-Mar-27 08:33N 34°39' W 121°47'  
Track history (hours):
 
Tides and Currents Weather Stations Pressure Air Temp Water Temp Dewpoint Dewpoint Depression Visibility Wind Speed Wind Dir Waves Ship Positions

Overseas Milos

Last reported at 2017-Mar-30 00:32 UTC. Time now 2017-Mar-30 00:54 UTC.
Position N 33°46' W 118°14'.

Length 183 m; draft 8.1 m.

Type: Tanker. MMSI: 538004376.

Date/timePositionNaut miles runAvg speedWind from/ knotsBaromVisibWave heightAir tempDewpointWater temp
2017-Mar-30 00:32N 33°46' W 118°14'0 0.0
2017-Mar-29 23:32N 33°46' W 118°14'0 0.0
2017-Mar-29 22:32N 33°46' W 118°14'0 0.0
2017-Mar-29 21:26N 33°46' W 118°14'0 0.0
2017-Mar-29 20:32N 33°46' W 118°14'0 0.0
2017-Mar-29 19:32N 33°46' W 118°14'0 0.0
2017-Mar-29 18:32N 33°46' W 118°14'0 0.0
2017-Mar-29 17:32N 33°46' W 118°14'0 0.0
2017-Mar-29 16:32N 33°46' W 118°14'0 0.0
2017-Mar-29 15:26N 33°46' W 118°14'0 0.0
2017-Mar-29 14:26N 33°46' W 118°14'0 0.0
2017-Mar-29 13:32N 33°46' W 118°14'0 0.0
2017-Mar-29 12:30N 33°46' W 118°14'1 1.4
2017-Mar-29 11:33N 33°45' W 118°16'7 6.7
2017-Mar-29 10:33N 33°39' W 118°13'5 5.2
2017-Mar-29 09:33N 33°35' W 118°09'10 9.7
2017-Mar-29 08:33N 33°25' W 118°06'8 7.7
2017-Mar-29 07:33N 33°18' W 118°02'1312.8
2017-Mar-29 06:33N 33°08' W 117°54'1313.4
2017-Mar-29 05:33N 32°56' W 117°46'1312.9
2017-Mar-29 04:33N 32°44' W 117°40'1212.4
2017-Mar-29 03:33N 32°33' W 117°33'1211.7
2017-Mar-29 02:33N 32°22' W 117°28'7 6.9
2017-Mar-29 01:33N 32°15' W 117°27'1 1.2
2017-Mar-29 00:33N 32°16' W 117°29'1 1.0
2017-Mar-28 23:33N 32°16' W 117°30'9 9.1
2017-Mar-28 22:33N 32°09' W 117°22'3 2.9
2017-Mar-28 21:33N 32°07' W 117°20'1 1.1
2017-Mar-28 20:32N 32°08' W 117°21'1 1.1
2017-Mar-28 19:33N 32°08' W 117°22'1 0.9
2017-Mar-28 18:33N 32°09' W 117°23'1 0.9
2017-Mar-28 17:32N 32°10' W 117°24'4 0.8
2017-Mar-28 12:28N 32°13' W 117°27'1 1.2
2017-Mar-28 11:17N 32°15' W 117°27'1 1.5
2017-Mar-28 10:23N 32°16' W 117°27'1 1.6
2017-Mar-28 09:28N 32°17' W 117°28'1 1.6
2017-Mar-28 08:33N 32°19' W 117°28'1 1.5
2017-Mar-28 07:33N 32°20' W 117°29'2 1.7
2017-Mar-28 06:33N 32°22' W 117°30'4 3.6
2017-Mar-28 05:33N 32°25' W 117°31'1313.4
2017-Mar-28 04:33N 32°36' W 117°40'1413.8
2017-Mar-28 03:33N 32°49' W 117°47'1212.4
2017-Mar-28 02:34N 32°60' W 117°54'1211.8
2017-Mar-28 01:34N 33°10' W 117°59'1211.5
2017-Mar-28 00:33N 33°20' W 118°07'1111.5
2017-Mar-27 23:34N 33°31' W 118°11'9 9.3
2017-Mar-27 22:34N 33°36' W 118°20'1211.4
2017-Mar-27 21:33N 33°42' W 118°32'1311.8
2017-Mar-27 20:27N 33°48' W 118°46'1011.4
2017-Mar-27 19:32N 33°53' W 118°57'1412.1
2017-Mar-27 18:23N 34°00' W 119°11'1113.6
2017-Mar-27 17:33N 34°04' W 119°24'1413.9
2017-Mar-27 16:32N 34°08' W 119°40'1613.9
2017-Mar-27 15:23N 34°12' W 119°59'1314.0
2017-Mar-27 14:27N 34°16' W 120°14'1313.8
2017-Mar-27 13:28N 34°19' W 120°30'1213.5
2017-Mar-27 12:33N 34°22' W 120°45'1413.7
2017-Mar-27 11:33N 34°26' W 121°00'1413.7
2017-Mar-27 10:34N 34°30' W 121°16'1313.3
2017-Mar-27 09:33N 34°34' W 121°32'1313.5
2017-Mar-27 08:33N 34°39' W 121°47'  

Dump ship's entire track history